createdAt,value
2016-05-30T00:01:16.875Z,14.43
2016-05-30T00:02:00.799Z,14.45
2016-05-30T00:02:57.708Z,14.55
2016-05-30T00:04:16.930Z,14.52
2016-05-30T00:04:57.730Z,14.52
2016-05-30T00:06:23.279Z,14.73
2016-05-30T00:06:58.422Z,14.7
2016-05-30T00:07:57.815Z,14.7
2016-05-30T00:08:57.802Z,14.66
2016-05-30T00:10:57.855Z,14.77
2016-05-30T00:12:00.920Z,14.71
2016-05-30T00:13:17.095Z,14.59
2016-05-30T00:13:57.910Z,14.56
2016-05-30T00:14:57.943Z,14.38
2016-05-30T00:16:00.962Z,14.43
2016-05-30T00:17:01.059Z,14.49
2016-05-30T00:18:13.733Z,14.37
2016-05-30T00:19:01.079Z,14.38
2016-05-30T00:20:01.707Z,14.56
2016-05-30T00:21:01.069Z,14.58
2016-05-30T00:22:01.244Z,14.63
2016-05-30T00:23:01.106Z,14.7
2016-05-30T00:24:00.967Z,14.74
2016-05-30T00:25:00.986Z,14.74
2016-05-30T00:26:08.832Z,14.74
2016-05-30T00:27:01.038Z,14.85
2016-05-30T00:28:01.198Z,14.82
2016-05-30T00:29:02.716Z,14.87
2016-05-30T00:30:01.297Z,14.97
2016-05-30T00:31:01.252Z,14.92
2016-05-30T00:32:02.692Z,14.99
2016-05-30T00:33:01.304Z,14.99
2016-05-30T00:34:14.057Z,14.94
2016-05-30T00:35:02.763Z,14.99
2016-05-30T00:36:01.360Z,15.02
2016-05-30T00:37:01.285Z,14.99
2016-05-30T00:38:01.412Z,15.02
2016-05-30T00:39:01.429Z,14.97
2016-05-30T00:40:14.183Z,14.87
2016-05-30T00:41:20.655Z,14.82
2016-05-30T00:42:01.329Z,14.77
2016-05-30T00:43:01.597Z,14.68
2016-05-30T00:44:01.521Z,14.58
2016-05-30T00:45:14.306Z,14.81
2016-05-30T00:46:01.590Z,14.82
2016-05-30T00:47:01.577Z,14.89
2016-05-30T00:48:01.626Z,14.92
2016-05-30T00:49:03.067Z,14.94
2016-05-30T00:50:01.648Z,14.94
2016-05-30T00:51:01.509Z,14.94
2016-05-30T00:52:03.278Z,14.86
2016-05-30T00:53:01.717Z,14.89
2016-05-30T00:54:01.736Z,14.87
2016-05-30T00:55:01.770Z,14.9
2016-05-30T00:56:01.773Z,14.9
2016-05-30T00:57:14.525Z,14.9
2016-05-30T00:58:03.231Z,14.94
2016-05-30T00:59:27.359Z,14.97
2016-05-30T01:00:14.424Z,14.86
2016-05-30T01:01:01.864Z,14.86
2016-05-30T01:02:01.757Z,14.86
2016-05-30T01:03:14.666Z,14.78
2016-05-30T01:04:03.232Z,14.82
2016-05-30T01:05:01.953Z,14.81
2016-05-30T01:06:21.049Z,14.86
2016-05-30T01:07:05.036Z,14.97
2016-05-30T01:08:02.024Z,15.04
2016-05-30T01:09:01.948Z,14.97
2016-05-30T01:10:02.060Z,14.97
2016-05-30T01:11:27.765Z,14.86
2016-05-30T01:12:02.096Z,14.89
2016-05-30T01:13:02.115Z,14.92
2016-05-30T01:14:02.180Z,14.96
2016-05-30T01:15:14.745Z,14.99
2016-05-30T01:16:02.202Z,14.99
2016-05-30T01:17:02.204Z,14.86
2016-05-30T01:18:02.098Z,14.89
2016-05-30T01:19:05.272Z,15
2016-05-30T01:20:02.275Z,14.87
2016-05-30T01:21:03.543Z,14.9
2016-05-30T01:22:22.202Z,14.9
2016-05-30T01:23:02.220Z,14.96
2016-05-30T01:25:17.429Z,14.93
2016-05-30T01:26:17.463Z,14.81
2016-05-30T01:27:17.481Z,14.82
2016-05-30T01:28:17.656Z,14.7
2016-05-30T01:29:17.517Z,14.78
2016-05-30T01:30:17.536Z,14.78
2016-05-30T01:31:17.570Z,14.78
2016-05-30T01:32:18.994Z,14.79
2016-05-30T01:33:19.013Z,14.82
2016-05-30T01:34:17.624Z,14.86
2016-05-30T01:35:17.644Z,14.78
2016-05-30T01:36:17.677Z,14.82
2016-05-30T01:37:17.821Z,14.78
2016-05-30T01:38:17.713Z,14.78
2016-05-30T01:39:17.841Z,14.89
2016-05-30T01:40:17.750Z,14.94
2016-05-30T01:41:17.863Z,15.05
2016-05-30T01:42:19.068Z,15.04
2016-05-30T01:43:17.852Z,14.96
2016-05-30T01:44:30.558Z,14.99
2016-05-30T01:45:17.842Z,14.97
2016-05-30T01:46:17.720Z,15.08
2016-05-30T01:47:17.893Z,15.12
2016-05-30T01:48:17.756Z,15.12
2016-05-30T01:49:17.931Z,15.11
2016-05-30T01:50:17.809Z,15.07
2016-05-30T01:51:17.967Z,15.1
2016-05-30T01:52:18.423Z,15.14
2016-05-30T01:53:37.317Z,15.08
2016-05-30T01:54:18.037Z,15.19
2016-05-30T01:55:17.915Z,15.11
2016-05-30T01:56:18.136Z,15.15
2016-05-30T01:57:30.827Z,15.15
2016-05-30T01:58:18.189Z,15.11
2016-05-30T01:59:17.989Z,15.02
2016-05-30T02:00:18.163Z,15.07
2016-05-30T02:01:18.026Z,15.12
2016-05-30T02:02:18.028Z,15.11
2016-05-30T02:03:19.624Z,15.18
2016-05-30T02:04:30.814Z,15.12
2016-05-30T02:05:18.271Z,15.11
2016-05-30T02:06:18.289Z,15.02
2016-05-30T02:07:18.605Z,14.97
2016-05-30T02:08:31.061Z,14.99
2016-05-30T02:09:18.343Z,15.02
2016-05-30T02:10:18.363Z,15.08
2016-05-30T02:11:18.365Z,15.15
2016-05-30T02:12:18.415Z,15.12
2016-05-30T02:13:18.418Z,15.14
2016-05-30T02:14:31.295Z,15.14
2016-05-30T02:15:30.876Z,15.14
2016-05-30T02:16:18.488Z,15.18
2016-05-30T02:17:18.366Z,15.22
2016-05-30T02:18:18.540Z,15.15
2016-05-30T02:19:37.652Z,15.05
2016-05-30T02:20:19.983Z,15
2016-05-30T02:21:18.876Z,15.12
2016-05-30T02:22:20.020Z,14.94
2016-05-30T02:23:31.381Z,15.02
2016-05-30T02:24:18.556Z,14.96
2016-05-30T02:25:18.668Z,15
2016-05-30T02:26:18.703Z,14.99
2016-05-30T02:27:37.923Z,14.96
2016-05-30T02:28:18.708Z,15
2016-05-30T02:29:18.757Z,15.05
2016-05-30T02:30:18.791Z,15
2016-05-30T02:31:18.700Z,14.99
2016-05-30T02:32:18.811Z,14.97
2016-05-30T02:33:38.034Z,14.93
2016-05-30T02:34:31.583Z,14.92
2016-05-30T02:35:18.711Z,14.81
2016-05-30T02:36:19.354Z,14.97
2016-05-30T02:37:20.966Z,14.89
2016-05-30T02:38:18.953Z,14.81
2016-05-30T02:39:18.968Z,14.86
2016-05-30T02:40:18.858Z,14.81
2016-05-30T02:41:19.074Z,14.82
2016-05-30T02:42:19.120Z,14.9
2016-05-30T02:43:19.165Z,14.96
2016-05-30T02:44:19.061Z,14.87
2016-05-30T02:45:19.246Z,14.99
2016-05-30T02:46:19.086Z,14.94
2016-05-30T02:47:20.708Z,14.81
2016-05-30T02:48:38.564Z,14.87
2016-05-30T02:49:19.324Z,14.89
2016-05-30T02:50:19.266Z,14.89
2016-05-30T02:51:19.398Z,14.9
2016-05-30T02:52:19.435Z,14.96
2016-05-30T02:53:19.269Z,14.92
2016-05-30T02:54:19.478Z,14.87
2016-05-30T02:55:32.138Z,14.89
2016-05-30T02:56:32.111Z,14.86
2016-05-30T02:57:22.552Z,14.92
2016-05-30T02:58:19.556Z,14.87
2016-05-30T02:59:19.590Z,14.82
2016-05-30T03:00:19.594Z,14.89
2016-05-30T03:01:19.614Z,14.94
2016-05-30T03:02:19.647Z,14.97
2016-05-30T03:03:22.682Z,14.9
2016-05-30T03:04:19.529Z,14.94
2016-05-30T03:05:19.720Z,14.9
2016-05-30T03:06:32.504Z,14.92
2016-05-30T03:07:19.740Z,14.92
2016-05-30T03:08:19.820Z,14.82
2016-05-30T03:09:22.512Z,14.86
2016-05-30T03:10:32.390Z,14.92
2016-05-30T03:11:26.079Z,14.93
2016-05-30T03:12:19.848Z,14.92
2016-05-30T03:13:19.881Z,14.97
2016-05-30T03:14:19.900Z,14.93
2016-05-30T03:15:20.153Z,14.99
2016-05-30T03:16:20.093Z,14.99
2016-05-30T03:17:19.939Z,14.93
2016-05-30T03:18:20.130Z,15.02
2016-05-30T03:19:20.085Z,15.05
2016-05-30T03:20:27.838Z,14.97
2016-05-30T03:21:20.185Z,14.99
2016-05-30T03:22:20.108Z,14.9
2016-05-30T03:23:39.424Z,14.94
2016-05-30T03:24:20.146Z,15.02
2016-05-30T03:25:20.102Z,15.05
2016-05-30T03:26:32.869Z,14.99
2016-05-30T03:27:19.934Z,14.97
2016-05-30T03:28:20.172Z,14.99
2016-05-30T03:29:32.940Z,14.96
2016-05-30T03:30:20.318Z,14.96
2016-05-30T03:31:39.289Z,14.96
2016-05-30T03:32:20.307Z,15.05
2016-05-30T03:33:20.295Z,15.1
2016-05-30T03:34:20.140Z,15.14
2016-05-30T03:35:32.878Z,15.17
2016-05-30T03:36:20.396Z,15.17
2016-05-30T03:37:20.243Z,15.14
2016-05-30T03:38:32.965Z,15.14
2016-05-30T03:39:20.249Z,15.12
2016-05-30T03:40:20.422Z,15.15
2016-05-30T03:41:20.457Z,15.22
2016-05-30T03:42:20.476Z,15.18
2016-05-30T03:43:33.244Z,15.12
2016-05-30T03:44:33.247Z,15.25
2016-05-30T03:45:20.421Z,15.22
2016-05-30T03:46:20.548Z,15.29
2016-05-30T03:47:33.395Z,15.26
2016-05-30T03:48:20.600Z,15.26
2016-05-30T03:49:46.325Z,15.26
2016-05-30T03:50:20.653Z,15.33
2016-05-30T03:51:20.656Z,15.32
2016-05-30T03:52:20.861Z,15.36
2016-05-30T03:53:23.567Z,15.36
2016-05-30T03:54:20.726Z,15.33
2016-05-30T03:55:20.744Z,15.27
2016-05-30T03:56:20.763Z,15.39
2016-05-30T03:57:23.797Z,15.43
2016-05-30T03:58:20.846Z,15.37
2016-05-30T03:59:20.833Z,15.44
2016-05-30T04:00:23.915Z,15.44
2016-05-30T04:01:20.870Z,15.5
2016-05-30T04:02:20.888Z,15.47
2016-05-30T04:03:20.906Z,15.48
2016-05-30T04:04:20.926Z,15.55
2016-05-30T04:05:20.787Z,15.59
2016-05-30T04:06:21.056Z,15.59
2016-05-30T04:07:20.839Z,15.59
2016-05-30T04:08:20.998Z,15.59
2016-05-30T04:09:21.173Z,15.69
2016-05-30T04:10:40.270Z,15.76
2016-05-30T04:11:21.210Z,15.75
2016-05-30T04:12:21.087Z,15.83
2016-05-30T04:13:21.105Z,15.94
2016-05-30T04:14:22.562Z,15.98
2016-05-30T04:15:21.158Z,16.02
2016-05-30T04:16:21.176Z,16.08
2016-05-30T04:17:21.195Z,15.92
2016-05-30T04:18:21.228Z,16.05
2016-05-30T04:19:21.247Z,16.24
2016-05-30T04:20:21.281Z,16.32
2016-05-30T04:21:21.283Z,16.29
2016-05-30T04:22:22.458Z,16.39
2016-05-30T04:23:21.336Z,16.32
2016-05-30T04:24:21.400Z,16.26
2016-05-30T04:25:21.357Z,16.41
2016-05-30T04:26:21.405Z,16.58
2016-05-30T04:27:21.408Z,16.64
2016-05-30T04:28:40.661Z,16.69
2016-05-30T04:29:21.304Z,16.66
2016-05-30T04:30:52.794Z,16.77
2016-05-30T04:31:36.763Z,16.83
2016-05-30T04:32:36.797Z,16.91
2016-05-30T04:33:36.815Z,17.05
2016-05-30T04:34:39.865Z,17.02
2016-05-30T04:35:39.914Z,17.16
2016-05-30T04:36:55.936Z,17.1
2016-05-30T04:37:37.327Z,17.17
2016-05-30T04:38:36.938Z,17.07
2016-05-30T04:39:49.662Z,16.98
2016-05-30T04:40:56.212Z,17.16
2016-05-30T04:42:02.652Z,17.16
2016-05-30T04:43:49.783Z,17.3
2016-05-30T04:44:49.816Z,17.35
2016-05-30T04:45:49.820Z,17.42
2016-05-30T04:47:09.041Z,17.5
2016-05-30T04:47:49.887Z,17.53
2016-05-30T04:49:15.593Z,17.59
2016-05-30T04:49:59.564Z,17.8
2016-05-30T04:50:59.583Z,18.02
2016-05-30T04:52:00.367Z,18.12
2016-05-30T04:52:59.619Z,18.31
2016-05-30T04:53:59.513Z,18.36
2016-05-30T04:55:00.922Z,18.94
2016-05-30T04:56:01.096Z,19.48
2016-05-30T04:57:02.755Z,20.33
2016-05-30T04:57:59.758Z,20.96
2016-05-30T04:59:18.963Z,20.92
2016-05-30T04:59:59.779Z,21.41
2016-05-30T05:02:02.377Z,21.92
2016-05-30T05:02:40.565Z,21.89
2016-05-30T05:03:14.959Z,21.84
2016-05-30T05:05:29.010Z,22.26
2016-05-30T05:06:25.951Z,22.41
2016-05-30T05:07:32.407Z,22.19
2016-05-30T05:08:29.018Z,22.59
2016-05-30T05:09:26.006Z,23.45
2016-05-30T05:10:26.024Z,23.67
2016-05-30T05:11:38.792Z,23.91
2016-05-30T05:12:45.295Z,24.21
2016-05-30T05:13:26.111Z,23.99
2016-05-30T05:14:26.253Z,24
2016-05-30T05:15:26.178Z,24.07
2016-05-30T05:16:27.619Z,24.56
2016-05-30T05:17:38.793Z,24.53
2016-05-30T05:18:26.264Z,24.61
2016-05-30T05:19:26.267Z,24.13
2016-05-30T05:20:39.036Z,24.18
2016-05-30T05:21:27.445Z,24.38
2016-05-30T05:22:26.292Z,24.38
2016-05-30T05:23:26.388Z,24.58
2016-05-30T05:24:26.422Z,24.78
2016-05-30T05:25:26.455Z,25.06
2016-05-30T05:26:26.458Z,25.58
2016-05-30T05:27:39.242Z,25.61
2016-05-30T05:28:39.105Z,25.81
2016-05-30T05:29:52.234Z,25.96
2016-05-30T05:30:36.202Z,26.01
2016-05-30T05:32:01.912Z,26.23
2016-05-30T05:32:36.255Z,26.33
2016-05-30T05:33:36.290Z,26.39
2016-05-30T05:34:36.307Z,26.92
2016-05-30T05:35:36.341Z,26.83
2016-05-30T05:36:49.987Z,26.92
2016-05-30T05:37:44.643Z,26.79
2016-05-30T05:39:02.149Z,26.79
2016-05-30T05:39:52.495Z,26.59
2016-05-30T05:40:46.261Z,26.51
2016-05-30T05:42:05.485Z,26.82
2016-05-30T05:42:47.720Z,27.03
2016-05-30T05:44:17.631Z,27.83
2016-05-30T05:45:01.712Z,27.83
2016-05-30T05:46:27.308Z,28.01
2016-05-30T05:47:01.656Z,28.34
2016-05-30T05:49:16.786Z,28.83
2016-05-30T05:50:16.804Z,28.08
2016-05-30T05:51:17.025Z,28.25
2016-05-30T05:52:29.621Z,29.3
2016-05-30T05:53:29.483Z,29.12
2016-05-30T05:54:37.565Z,28.87
2016-05-30T05:55:40.599Z,28.4
2016-05-30T05:56:34.133Z,28.01
2016-05-30T05:57:21.588Z,27.37
2016-05-30T06:00:33.691Z,28.22
2016-05-30T06:01:02.427Z,28.33
2016-05-30T06:02:02.493Z,28.77
2016-05-30T06:03:11.980Z,29.87
2016-05-30T06:04:12.013Z,30.4
2016-05-30T06:05:24.782Z,30.26
2016-05-30T06:06:25.504Z,30.58
2016-05-30T06:07:37.896Z,30.76
2016-05-30T06:08:41.071Z,30.44
2016-05-30T06:09:41.308Z,30.56
2016-05-30T06:10:53.876Z,31.05
2016-05-30T06:11:42.892Z,30.59
2016-05-30T06:12:41.301Z,30.77
2016-05-30T06:14:00.743Z,30.88
2016-05-30T06:14:54.059Z,30.51
2016-05-30T06:15:41.496Z,30.38
2016-05-30T06:17:00.533Z,30.52
2016-05-30T06:17:41.579Z,30.61
2016-05-30T06:18:41.239Z,30.35
2016-05-30T06:20:42.884Z,30.18
2016-05-30T06:21:43.403Z,30.36
2016-05-30T06:22:41.608Z,30.83
2016-05-30T06:23:54.161Z,30.11
2016-05-30T06:25:00.835Z,30.29
2016-05-30T06:26:00.853Z,30.91
2016-05-30T06:27:13.231Z,32.3
2016-05-30T06:27:41.716Z,32.27
2016-05-30T06:29:54.536Z,30.76
2016-05-30T06:30:45.083Z,30.03
2016-05-30T06:32:56.997Z,29.59
2016-05-30T06:33:57.032Z,30.55
2016-05-30T06:35:09.769Z,31.25
2016-05-30T06:35:57.052Z,31.2
2016-05-30T06:37:28.665Z,31.59
2016-05-30T06:37:57.135Z,32.09
2016-05-30T06:38:57.185Z,33.01
2016-05-30T06:39:57.204Z,32.38
2016-05-30T06:40:57.237Z,32.12
2016-05-30T06:41:57.382Z,31.39
2016-05-30T06:42:58.774Z,31.59
2016-05-30T06:44:10.074Z,31.98
2016-05-30T06:44:57.373Z,31.41
2016-05-30T06:46:23.095Z,30.76
2016-05-30T06:47:10.285Z,31.36
2016-05-30T06:47:57.334Z,31.36
2016-05-30T06:49:23.198Z,32.51
2016-05-30T06:49:59.168Z,32.83
2016-05-30T06:51:28.874Z,33.2
2016-05-30T06:51:57.659Z,32.97
2016-05-30T06:52:57.661Z,32.78
2016-05-30T06:53:57.710Z,32.27
2016-05-30T06:54:57.901Z,32.24
2016-05-30T06:56:00.981Z,31.98
2016-05-30T06:56:59.234Z,32.41
2016-05-30T06:58:03.737Z,33.36
2016-05-30T06:59:10.614Z,33.53
2016-05-30T07:00:00.774Z,33.51
2016-05-30T07:00:57.979Z,33.01
2016-05-30T07:01:57.982Z,32.3
2016-05-30T07:03:12.438Z,31.78
2016-05-30T07:03:59.472Z,32.54
2016-05-30T07:05:17.303Z,32.64
2016-05-30T07:06:17.180Z,32.68
2016-05-30T07:07:29.464Z,31.67
2016-05-30T07:07:58.045Z,31.64
2016-05-30T07:10:05.128Z,33.5
2016-05-30T07:10:58.179Z,34.62
2016-05-30T07:11:58.352Z,34.11
2016-05-30T07:13:11.104Z,33.81
2016-05-30T07:14:01.452Z,33.47
2016-05-30T07:15:17.720Z,32.48
2016-05-30T07:16:04.770Z,32.71
2016-05-30T07:16:58.523Z,33.09
2016-05-30T07:17:58.588Z,32.85
2016-05-30T07:19:11.340Z,32.08
2016-05-30T07:20:13.453Z,32.02
2016-05-30T07:21:24.486Z,32.16
2016-05-30T07:21:58.739Z,32.42
2016-05-30T07:22:58.851Z,32.44
2016-05-30T07:24:00.197Z,32.73
2016-05-30T07:24:58.716Z,33.53
2016-05-30T07:26:11.672Z,33.69
2016-05-30T07:27:00.315Z,32.39
2016-05-30T07:29:14.211Z,31.2
2016-05-30T07:30:14.198Z,31.48
2016-05-30T07:31:14.278Z,31.37
2016-05-30T07:32:14.297Z,31.74
2016-05-30T07:33:14.830Z,31.72
2016-05-30T07:34:14.193Z,32.04
2016-05-30T07:35:27.039Z,31.73
2016-05-30T07:36:27.042Z,32.37
2016-05-30T07:37:15.294Z,32.79
2016-05-30T07:38:14.532Z,33.1
2016-05-30T07:39:14.534Z,33.33
2016-05-30T07:40:27.335Z,32.66
2016-05-30T07:41:14.634Z,32.76
2016-05-30T07:42:14.621Z,33.09
2016-05-30T07:43:14.545Z,32.98
2016-05-30T07:44:14.580Z,32.42
2016-05-30T07:45:14.770Z,32.64
2016-05-30T07:46:16.209Z,32.24
2016-05-30T07:47:14.837Z,31
2016-05-30T07:48:15.215Z,30.98
2016-05-30T07:49:14.765Z,30.88
2016-05-30T07:50:34.001Z,30.78
2016-05-30T07:51:14.989Z,30.8
2016-05-30T07:52:14.866Z,30.88
2016-05-30T07:53:16.478Z,31.2
2016-05-30T07:54:16.528Z,30.35
2016-05-30T07:55:14.953Z,29.37
2016-05-30T07:56:16.596Z,29.57
2016-05-30T07:57:27.942Z,29.52
2016-05-30T07:58:18.273Z,29.37
2016-05-30T07:59:40.963Z,29.47
2016-05-30T08:00:15.372Z,30.27
2016-05-30T08:01:15.375Z,30.71
2016-05-30T08:02:15.300Z,30.67
2016-05-30T08:03:18.302Z,31
2016-05-30T08:04:15.461Z,30.89
2016-05-30T08:05:15.527Z,30.58
2016-05-30T08:06:18.576Z,30.06
2016-05-30T08:07:28.547Z,29.69
2016-05-30T08:08:21.878Z,29.21
2016-05-30T08:09:41.303Z,29.16
2016-05-30T08:10:15.680Z,28.9
2016-05-30T08:13:12.735Z,27.07
2016-05-30T08:13:25.360Z,26.83
2016-05-30T08:14:25.332Z,26.04
2016-05-30T08:15:25.382Z,25.59
2016-05-30T08:16:25.416Z,25.44
2016-05-30T08:17:25.434Z,25.11
2016-05-30T08:18:25.468Z,25.04
2016-05-30T08:19:38.251Z,25.15
2016-05-30T08:20:25.551Z,25.15
2016-05-30T08:21:29.007Z,25.06
2016-05-30T08:22:25.620Z,25.14
2016-05-30T08:23:25.669Z,25.03
2016-05-30T08:24:38.420Z,24.78
2016-05-30T08:25:27.142Z,24.46
2016-05-30T08:26:51.426Z,24.44
2016-05-30T08:27:38.508Z,24.53
2016-05-30T08:28:25.807Z,24.56
2016-05-30T08:29:25.950Z,24.61
2016-05-30T08:30:25.719Z,24.38
2016-05-30T08:31:25.893Z,24.53
2016-05-30T08:32:25.958Z,24.79
2016-05-30T08:33:25.992Z,25.03
2016-05-30T08:34:25.995Z,25.22
2016-05-30T08:35:26.029Z,24.92
2016-05-30T08:36:26.407Z,25.18
2016-05-30T08:37:26.113Z,25.15
2016-05-30T08:38:38.677Z,25.19
2016-05-30T08:39:26.165Z,25.22
2016-05-30T08:40:26.214Z,25.16
2016-05-30T08:41:26.217Z,25.01
2016-05-30T08:42:25.939Z,25.29
2016-05-30T08:43:26.268Z,25.31
2016-05-30T08:44:26.304Z,25.06
2016-05-30T08:45:26.477Z,25.34
2016-05-30T08:46:26.512Z,25.46
2016-05-30T08:47:39.232Z,25.56
2016-05-30T08:48:39.235Z,25.63
2016-05-30T08:49:26.535Z,25.29
2016-05-30T08:50:26.523Z,25.15
2016-05-30T08:51:26.823Z,25.01
2016-05-30T08:52:26.825Z,25.24
2016-05-30T08:53:26.545Z,25.26
2016-05-30T08:54:26.580Z,25.46
2016-05-30T08:55:26.614Z,25.56
2016-05-30T08:56:26.632Z,25.33
2016-05-30T08:57:39.104Z,25.3
2016-05-30T08:58:26.857Z,25.48
2016-05-30T08:59:26.734Z,25.59
2016-05-30T09:00:26.767Z,25.67
2016-05-30T09:01:26.817Z,25.85
2016-05-30T09:02:26.914Z,25.66
2016-05-30T09:03:39.417Z,25.24
2016-05-30T09:04:26.904Z,25.19
2016-05-30T09:05:27.000Z,25.24
2016-05-30T09:06:40.159Z,25.36
2016-05-30T09:07:27.365Z,25.52
2016-05-30T09:08:26.994Z,25.51
2016-05-30T09:09:26.777Z,25.43
2016-05-30T09:10:27.044Z,25.29
2016-05-30T09:11:27.126Z,25.11
2016-05-30T09:12:27.113Z,25.16
2016-05-30T09:13:26.975Z,25.04
2016-05-30T09:14:27.180Z,25.04
2016-05-30T09:15:46.496Z,25.06
2016-05-30T09:16:27.060Z,25.16
2016-05-30T09:17:27.095Z,25.25
2016-05-30T09:18:27.270Z,25.33
2016-05-30T09:19:40.038Z,25.43
2016-05-30T09:20:27.401Z,25.54
2016-05-30T09:21:58.496Z,25.39
2016-05-30T09:22:27.327Z,25.33
2016-05-30T09:23:27.423Z,25.4
2016-05-30T09:24:28.723Z,25.56
2016-05-30T09:25:27.492Z,25.67
2016-05-30T09:26:27.495Z,25.37
2016-05-30T09:27:27.559Z,25.37
2016-05-30T09:28:27.561Z,25.59
2016-05-30T09:29:27.596Z,25.54
2016-05-30T09:30:40.380Z,25.46
2016-05-30T09:31:30.711Z,25.48
2016-05-30T09:32:27.683Z,25.68
2016-05-30T09:33:27.748Z,25.81
2016-05-30T09:34:27.766Z,25.96
2016-05-30T09:35:27.628Z,25.86
2016-05-30T09:36:28.458Z,25.71
2016-05-30T09:37:28.025Z,25.77
2016-05-30T09:38:27.855Z,25.81
2016-05-30T09:39:27.872Z,25.95
2016-05-30T09:40:27.797Z,25.95
2016-05-30T09:41:40.675Z,25.73
2016-05-30T09:42:28.037Z,25.71
2016-05-30T09:43:53.681Z,25.76
2016-05-30T09:44:28.074Z,25.71
2016-05-30T09:45:28.076Z,25.8
2016-05-30T09:46:27.986Z,25.85
2016-05-30T09:47:28.113Z,26.11
2016-05-30T09:48:29.537Z,25.78
2016-05-30T09:49:28.182Z,25.78
2016-05-30T09:50:28.215Z,25.81
2016-05-30T09:51:28.249Z,25.8
2016-05-30T09:52:41.267Z,25.76
2016-05-30T09:53:28.301Z,25.58
2016-05-30T09:54:28.303Z,25.73
2016-05-30T09:55:28.353Z,25.7
2016-05-30T09:56:47.590Z,25.62
2016-05-30T09:57:28.406Z,25.52
2016-05-30T09:58:59.705Z,25.67
2016-05-30T09:59:37.958Z,25.73
2016-05-30T10:00:37.992Z,25.78
2016-05-30T10:01:50.761Z,25.77
2016-05-30T10:02:38.044Z,25.99
2016-05-30T10:03:38.078Z,25.95
2016-05-30T10:04:57.315Z,25.96
2016-05-30T10:05:38.115Z,25.85
2016-05-30T10:06:38.242Z,25.91
2016-05-30T10:07:50.792Z,25.93
2016-05-30T10:08:38.217Z,25.95
2016-05-30T10:09:39.501Z,26.19
2016-05-30T10:10:38.269Z,26.23
2016-05-30T10:12:47.931Z,26.24
2016-05-30T10:13:47.980Z,26.51
2016-05-30T10:14:49.608Z,26.76
2016-05-30T10:15:49.455Z,26.76
2016-05-30T10:16:48.066Z,26.63
2016-05-30T10:17:48.085Z,26.39
2016-05-30T10:18:48.134Z,26.3
2016-05-30T10:19:48.152Z,26.11
2016-05-30T10:21:07.376Z,26.23
2016-05-30T10:21:48.220Z,26.37
2016-05-30T10:22:48.254Z,26.36
2016-05-30T10:23:48.257Z,26.37
2016-05-30T10:24:48.291Z,26.55
2016-05-30T10:26:01.121Z,26.52
2016-05-30T10:26:49.749Z,26.53
2016-05-30T10:27:48.393Z,26.36
2016-05-30T10:29:00.989Z,26.27
2016-05-30T10:30:01.023Z,26.34
2016-05-30T10:31:13.966Z,26.55
2016-05-30T10:31:48.325Z,26.46
2016-05-30T10:32:48.594Z,26.46
2016-05-30T10:33:48.565Z,26.59
2016-05-30T10:34:48.645Z,26.63
2016-05-30T10:35:48.633Z,26.63
2016-05-30T10:36:49.105Z,26.68
2016-05-30T10:37:48.670Z,26.86
2016-05-30T10:38:48.703Z,26.71
2016-05-30T10:39:48.738Z,26.71
2016-05-30T10:40:51.786Z,26.93
2016-05-30T10:41:48.619Z,27.1
2016-05-30T10:42:48.652Z,27.37
2016-05-30T10:43:48.842Z,27.26
2016-05-30T10:44:48.861Z,27.33
2016-05-30T10:45:51.941Z,27.28
2016-05-30T10:47:08.150Z,27.34
2016-05-30T10:47:48.963Z,27.43
2016-05-30T10:49:08.201Z,27.41
2016-05-30T10:49:49.029Z,27.43
2016-05-30T10:50:49.110Z,27.71
2016-05-30T10:52:02.224Z,27.81
2016-05-30T10:52:49.163Z,27.79
2016-05-30T10:53:49.166Z,27.61
2016-05-30T10:54:49.044Z,27.53
2016-05-30T10:56:01.781Z,27.43
2016-05-30T10:57:01.955Z,27.44
2016-05-30T10:57:48.958Z,27.66
2016-05-30T10:59:08.495Z,27.95
2016-05-30T10:59:49.338Z,28.12
2016-05-30T11:00:49.340Z,28.16
2016-05-30T11:01:49.343Z,28.13
2016-05-30T11:02:49.409Z,28.3
2016-05-30T11:03:49.458Z,28.46
2016-05-30T11:04:49.476Z,28.46
2016-05-30T11:05:50.901Z,28.31
2016-05-30T11:06:49.528Z,28.16
2016-05-30T11:07:49.641Z,28.28
2016-05-30T11:08:49.597Z,28.47
2016-05-30T11:09:49.630Z,28.34
2016-05-30T11:10:49.664Z,28.35
2016-05-30T11:11:49.683Z,28.37
2016-05-30T11:12:49.717Z,28.45
2016-05-30T11:13:49.735Z,28.34
2016-05-30T11:15:02.519Z,28.1
2016-05-30T11:15:49.803Z,28.1
2016-05-30T11:16:49.837Z,28.03
2016-05-30T11:17:49.871Z,27.94
2016-05-30T11:18:52.936Z,28.04
2016-05-30T11:19:49.752Z,28.06
2016-05-30T11:20:49.957Z,27.95
2016-05-30T11:21:50.007Z,28.04
2016-05-30T11:22:49.775Z,27.91
2016-05-30T11:23:50.075Z,27.95
2016-05-30T11:24:50.077Z,28.01
2016-05-30T11:25:50.112Z,27.91
2016-05-30T11:26:50.145Z,28.08
2016-05-30T11:27:50.023Z,28
2016-05-30T11:28:50.259Z,27.98
2016-05-30T11:29:50.232Z,27.95
2016-05-30T11:30:50.296Z,28.04
2016-05-30T11:31:50.284Z,28.1
2016-05-30T11:32:50.223Z,28.01
2016-05-30T11:34:03.101Z,27.5
2016-05-30T11:34:51.792Z,27.43
2016-05-30T11:35:50.545Z,27.68
2016-05-30T11:36:50.281Z,27.5
2016-05-30T11:38:21.880Z,27.55
2016-05-30T11:38:50.552Z,27.61
2016-05-30T11:39:50.806Z,27.94
2016-05-30T11:40:50.636Z,27.82
2016-05-30T11:41:53.435Z,28.2
2016-05-30T11:42:50.641Z,28.46
2016-05-30T11:43:50.769Z,28.49
2016-05-30T11:44:50.709Z,28.74
2016-05-30T11:45:52.148Z,28.62
2016-05-30T11:46:50.641Z,28.19
2016-05-30T11:48:00.133Z,28.04
2016-05-30T11:48:50.906Z,27.93
2016-05-30T11:49:57.209Z,27.82
2016-05-30T11:51:03.770Z,27.79
2016-05-30T11:51:51.342Z,27.78
2016-05-30T11:53:10.769Z,27.85
2016-05-30T11:53:51.081Z,28.18
2016-05-30T11:54:51.138Z,28.25
2016-05-30T11:56:03.753Z,28.27
2016-05-30T11:56:51.196Z,28.35
2016-05-30T11:57:51.374Z,28.1
2016-05-30T11:58:51.316Z,28.16
2016-05-30T12:00:04.041Z,28.47
2016-05-30T12:00:51.326Z,28.46
2016-05-30T12:01:51.190Z,28.46
2016-05-30T12:02:51.397Z,28.4
2016-05-30T12:03:51.385Z,28.64
2016-05-30T12:04:51.451Z,28.8
2016-05-30T12:05:51.392Z,28.86
2016-05-30T12:06:51.708Z,28.87
2016-05-30T12:07:51.804Z,29.06
2016-05-30T12:09:10.951Z,28.87
2016-05-30T12:10:04.342Z,28.93
2016-05-30T12:11:17.348Z,28.87
2016-05-30T12:11:51.691Z,28.8
2016-05-30T12:12:51.756Z,28.65
2016-05-30T12:13:51.743Z,28.49
2016-05-30T12:15:11.076Z,28.64
2016-05-30T12:15:51.795Z,28.72
2016-05-30T12:17:17.520Z,28.75
2016-05-30T12:18:05.848Z,28.64
2016-05-30T12:20:17.497Z,28.45
2016-05-30T12:20:51.950Z,28.45
2016-05-30T12:21:51.875Z,28.55
2016-05-30T12:22:52.127Z,28.64
2016-05-30T12:23:52.036Z,28.65
2016-05-30T12:24:52.070Z,28.77
2016-05-30T12:25:52.103Z,28.68
2016-05-30T12:27:04.888Z,28.77
2016-05-30T12:27:52.172Z,28.97
2016-05-30T12:28:52.236Z,29.03
2016-05-30T12:29:52.255Z,29.09
2016-05-30T12:30:52.321Z,29.12
2016-05-30T12:31:55.324Z,29.12
2016-05-30T12:32:52.154Z,28.78
2016-05-30T12:33:52.375Z,28.83
2016-05-30T12:34:52.393Z,28.9
2016-05-30T12:35:52.427Z,29.02
2016-05-30T12:36:52.149Z,28.77
2016-05-30T12:37:52.558Z,28.78
2016-05-30T12:38:52.498Z,29.06
2016-05-30T12:39:52.391Z,29.18
2016-05-30T12:40:55.457Z,29.42
2016-05-30T12:41:52.615Z,29.57
2016-05-30T12:43:06.790Z,29.4
2016-05-30T12:44:05.246Z,29.49
2016-05-30T12:44:52.718Z,29.55
2016-05-30T12:46:18.426Z,29.07
2016-05-30T12:47:02.348Z,28.86
2016-05-30T12:48:02.397Z,28.7
2016-05-30T12:49:02.432Z,28.57
2016-05-30T12:50:02.465Z,28.5
2016-05-30T12:51:15.298Z,28.46
2016-05-30T12:52:04.798Z,28.38
2016-05-30T12:53:02.567Z,28.55
2016-05-30T12:54:02.601Z,28.75
2016-05-30T12:55:02.635Z,29.05
2016-05-30T12:56:04.778Z,29.15
2016-05-30T12:57:02.687Z,29.21
2016-05-30T12:58:04.019Z,29.3
2016-05-30T12:59:02.599Z,29.2
2016-05-30T13:00:21.963Z,29.21
2016-05-30T13:01:02.807Z,29.13
2016-05-30T13:02:02.857Z,29.1
2016-05-30T13:03:02.875Z,29.24
2016-05-30T13:04:15.646Z,28.96
2016-05-30T13:05:02.958Z,29.07
2016-05-30T13:06:22.168Z,29.06
2016-05-30T13:07:04.402Z,29.27
2016-05-30T13:08:34.313Z,29.47
2016-05-30T13:09:18.394Z,29.57
2016-05-30T13:10:18.429Z,29.68
2016-05-30T13:11:31.102Z,29.77
2016-05-30T13:12:18.246Z,29.77
2016-05-30T13:13:44.092Z,29.79
2016-05-30T13:14:28.095Z,29.5
2016-05-30T13:15:28.129Z,29.46